createdAt,value
2022-10-18T00:01:14.876Z,13.10
2022-10-18T00:03:44.788Z,12.52
2022-10-18T00:06:14.808Z,13.25
2022-10-18T00:08:44.786Z,10.52
2022-10-18T00:11:14.689Z,15.48
2022-10-18T00:13:44.678Z,11.02
2022-10-18T00:16:15.605Z,10.52
2022-10-18T00:18:45.868Z,14.07
2022-10-18T00:21:19.954Z,11.88
2022-10-18T00:23:50.718Z,12.63
2022-10-18T00:26:22.906Z,10.90
2022-10-18T00:28:53.925Z,12.48
2022-10-18T00:31:25.349Z,10.85
2022-10-18T00:33:56.557Z,13.57
2022-10-18T00:36:26.989Z,11.75
2022-10-18T00:38:58.117Z,11.35
2022-10-18T00:41:29.406Z,13.18
2022-10-18T00:44:09.420Z,12.25
2022-10-18T00:46:42.834Z,11.60
2022-10-18T00:49:15.575Z,11.48
2022-10-18T00:51:49.276Z,12.20
2022-10-18T00:54:19.275Z,11.60
2022-10-18T00:56:49.202Z,12.18
2022-10-18T00:59:19.398Z,15.32
2022-10-18T01:01:49.373Z,14.60
2022-10-18T01:04:19.828Z,13.48
2022-10-18T01:09:40.273Z,12.13
2022-10-18T01:12:34.860Z,18.02
2022-10-18T01:15:23.656Z,18.08
2022-10-18T01:18:08.111Z,12.70
2022-10-18T01:20:44.110Z,20.30
2022-10-18T01:23:28.567Z,13.80
2022-10-18T01:26:10.920Z,15.57
2022-10-18T01:28:43.803Z,15.93
2022-10-18T01:31:27.009Z,18.25
2022-10-18T01:36:36.747Z,18.23
2022-10-18T01:39:08.248Z,17.88
2022-10-18T01:41:38.454Z,16.25
2022-10-18T01:44:08.867Z,16.08
2022-10-18T01:46:38.828Z,12.82
2022-10-18T01:49:08.781Z,14.80
2022-10-18T01:51:38.732Z,13.50
2022-10-18T01:54:08.773Z,15.38
2022-10-18T01:56:51.609Z,14.00
2022-10-18T01:59:40.616Z,12.23
2022-10-18T02:02:29.174Z,14.63
2022-10-18T02:05:00.199Z,12.77
2022-10-18T02:07:39.243Z,12.68
2022-10-18T02:10:18.074Z,11.02
2022-10-18T02:12:48.083Z,14.32
2022-10-18T02:15:18.896Z,13.77
2022-10-18T02:17:48.935Z,11.88
2022-10-18T02:20:20.118Z,14.63
2022-10-18T02:22:51.344Z,14.65
2022-10-18T02:25:23.310Z,11.02
2022-10-18T02:27:57.159Z,15.50
2022-10-18T02:30:30.092Z,14.18
2022-10-18T02:33:20.443Z,17.73
2022-10-18T02:35:52.190Z,18.70
2022-10-18T02:38:22.503Z,11.15
2022-10-18T02:40:52.404Z,14.80
2022-10-18T02:43:22.603Z,13.43
2022-10-18T02:45:52.542Z,15.13
2022-10-18T02:48:22.445Z,10.30
2022-10-18T02:50:53.198Z,13.68
2022-10-18T02:53:23.426Z,14.02
2022-10-18T02:55:53.358Z,12.60
2022-10-18T02:58:23.286Z,11.88
2022-10-18T03:00:53.315Z,15.30
2022-10-18T03:03:23.323Z,33.72
2022-10-18T03:05:53.734Z,13.02
2022-10-18T03:08:23.929Z,11.40
2022-10-18T03:10:54.212Z,13.88
2022-10-18T03:13:24.217Z,13.70
2022-10-18T03:15:54.173Z,16.25
2022-10-18T03:18:24.158Z,10.05
2022-10-18T03:20:54.111Z,9.20
2022-10-18T03:23:24.036Z,11.43
2022-10-18T03:25:54.077Z,14.18
2022-10-18T03:28:24.047Z,10.65
2022-10-18T03:30:54.142Z,9.05
2022-10-18T03:33:24.101Z,10.85
2022-10-18T03:35:54.044Z,10.07
2022-10-18T03:38:24.028Z,11.43
2022-10-18T03:40:54.108Z,12.15
2022-10-18T03:43:24.168Z,11.98
2022-10-18T03:45:54.143Z,14.00
2022-10-18T03:48:24.038Z,10.80
2022-10-18T03:50:53.960Z,10.02
2022-10-18T03:53:23.863Z,9.73
2022-10-18T03:55:56.818Z,14.15
2022-10-18T03:58:26.937Z,36.03
2022-10-18T04:00:57.155Z,14.18
2022-10-18T04:03:27.466Z,18.77
2022-10-18T04:05:58.137Z,12.30
2022-10-18T04:08:28.221Z,10.38
2022-10-18T04:10:58.149Z,15.90
2022-10-18T04:13:28.103Z,15.02
2022-10-18T04:15:58.081Z,15.80
2022-10-18T04:18:28.067Z,12.52
2022-10-18T04:20:57.989Z,19.33
2022-10-18T04:23:27.982Z,24.20
2022-10-18T04:25:58.465Z,40.72
2022-10-18T04:28:28.547Z,37.20
2022-10-18T04:30:59.125Z,18.25
2022-10-18T04:33:29.147Z,24.75
2022-10-18T04:35:59.120Z,18.05
2022-10-18T04:38:29.176Z,19.50
2022-10-18T04:40:59.187Z,15.98
2022-10-18T04:43:29.142Z,18.52
2022-10-18T04:45:59.124Z,17.85
2022-10-18T04:48:29.062Z,14.65
2022-10-18T04:50:59.034Z,18.30
2022-10-18T04:53:28.973Z,13.68
2022-10-18T04:55:58.882Z,18.58
2022-10-18T04:58:28.963Z,16.05
2022-10-18T05:00:58.882Z,16.30
2022-10-18T05:03:28.825Z,12.68
2022-10-18T05:06:03.277Z,10.27
2022-10-18T05:08:34.037Z,15.43
2022-10-18T05:11:04.952Z,18.05
2022-10-18T05:13:35.321Z,11.13
2022-10-18T05:16:05.244Z,17.48
2022-10-18T05:18:35.679Z,12.07
2022-10-18T05:21:06.013Z,11.23
2022-10-18T05:23:36.062Z,11.95
2022-10-18T05:26:07.329Z,11.70
2022-10-18T05:28:40.004Z,15.65
2022-10-18T05:31:13.779Z,13.10
2022-10-18T05:33:46.434Z,21.80
2022-10-18T05:36:16.770Z,13.63
2022-10-18T05:38:46.807Z,18.27
2022-10-18T05:41:17.437Z,27.08
2022-10-18T05:43:48.052Z,16.83
2022-10-18T05:46:18.198Z,14.23
2022-10-18T05:48:52.131Z,11.02
2022-10-18T05:51:23.006Z,15.75
2022-10-18T05:53:54.205Z,13.30
2022-10-18T05:56:24.459Z,14.88
2022-10-18T05:58:54.474Z,15.00
2022-10-18T06:01:24.956Z,17.70
2022-10-18T06:03:55.533Z,10.48
2022-10-18T06:06:25.547Z,27.25
2022-10-18T06:08:55.540Z,20.48
2022-10-18T06:11:25.537Z,18.58
2022-10-18T06:13:55.498Z,16.02
2022-10-18T06:16:29.767Z,15.60
2022-10-18T06:19:02.723Z,16.63
2022-10-18T06:21:32.967Z,17.15
2022-10-18T06:24:03.424Z,14.07
2022-10-18T06:26:33.549Z,13.48
2022-10-18T06:29:03.677Z,12.38
2022-10-18T06:31:33.784Z,13.30
2022-10-18T06:34:04.022Z,14.45
2022-10-18T06:36:34.102Z,25.13
2022-10-18T06:39:04.007Z,13.55
2022-10-18T06:41:34.235Z,13.10
2022-10-18T06:44:21.610Z,18.73
2022-10-18T06:46:52.707Z,24.00
2022-10-18T06:49:22.624Z,12.70
2022-10-18T06:51:52.506Z,13.35
2022-10-18T06:54:22.525Z,15.63
2022-10-18T06:56:52.520Z,10.52
2022-10-18T06:59:23.581Z,13.00
2022-10-18T07:01:55.669Z,15.18
2022-10-18T07:04:25.631Z,13.93
2022-10-18T07:06:56.474Z,14.10
2022-10-18T07:09:26.696Z,14.43
2022-10-18T07:11:56.793Z,15.98
2022-10-18T07:14:29.051Z,15.40
2022-10-18T07:17:01.149Z,19.08
2022-10-18T07:22:01.796Z,14.25
2022-10-18T07:27:03.290Z,17.17
2022-10-18T07:29:33.475Z,17.42
2022-10-18T07:32:03.742Z,13.50
2022-10-18T07:34:34.058Z,18.83
2022-10-18T07:37:04.871Z,19.55
2022-10-18T07:39:35.063Z,18.45
2022-10-18T07:42:05.297Z,18.60
2022-10-18T07:44:35.507Z,18.90
2022-10-18T07:47:05.521Z,17.92
2022-10-18T07:49:35.752Z,14.70
2022-10-18T07:52:05.785Z,18.30
2022-10-18T07:54:35.706Z,16.80
2022-10-18T07:57:06.635Z,18.77
2022-10-18T07:59:36.723Z,17.67
2022-10-18T08:02:06.685Z,16.33
2022-10-18T08:04:37.597Z,16.45
2022-10-18T08:07:07.616Z,15.13
2022-10-18T08:09:37.623Z,28.05
2022-10-18T08:12:07.659Z,16.27
2022-10-18T08:14:37.595Z,21.15
2022-10-18T08:17:07.505Z,16.90
2022-10-18T08:19:37.851Z,25.95
2022-10-18T08:22:08.052Z,16.08
2022-10-18T08:24:38.009Z,18.42
2022-10-18T08:27:08.036Z,16.40
2022-10-18T08:29:37.978Z,20.10
2022-10-18T08:32:12.057Z,16.83
2022-10-18T08:34:42.678Z,13.32
2022-10-18T08:37:12.722Z,16.77
2022-10-18T08:39:42.664Z,14.57
2022-10-18T08:42:31.202Z,15.60
2022-10-18T08:45:08.285Z,19.48
2022-10-18T08:47:54.929Z,14.70
2022-10-18T08:50:36.051Z,13.13
2022-10-18T08:53:05.948Z,17.25
2022-10-18T08:55:45.820Z,16.90
2022-10-18T08:58:25.156Z,19.65
2022-10-18T09:01:12.044Z,18.85
2022-10-18T09:03:56.833Z,15.68
2022-10-18T09:06:32.989Z,19.33
2022-10-18T09:09:08.870Z,13.48
2022-10-18T09:11:48.071Z,18.38
2022-10-18T09:14:36.210Z,21.65
2022-10-18T09:17:06.233Z,17.77
2022-10-18T09:19:56.807Z,12.35
2022-10-18T09:22:30.389Z,17.50
2022-10-18T09:25:00.548Z,19.00
2022-10-18T09:27:35.329Z,19.20
2022-10-18T09:30:29.042Z,15.27
2022-10-18T09:33:00.626Z,27.65
2022-10-18T09:35:31.803Z,20.10
2022-10-18T09:38:04.231Z,17.00
2022-10-18T09:40:35.503Z,21.00
2022-10-18T09:43:08.249Z,23.05
2022-10-18T09:45:41.231Z,16.90
2022-10-18T09:48:30.412Z,20.60
2022-10-18T09:51:00.567Z,18.33
2022-10-18T09:53:31.381Z,19.50
2022-10-18T09:56:03.159Z,15.20
2022-10-18T09:58:42.760Z,15.32
2022-10-18T10:01:13.194Z,20.00
2022-10-18T10:03:43.533Z,22.98
2022-10-18T10:06:16.444Z,22.30
2022-10-18T10:08:47.133Z,19.27
2022-10-18T10:11:33.514Z,20.48
2022-10-18T10:14:10.107Z,25.58
2022-10-18T10:16:50.335Z,23.48
2022-10-18T10:19:23.153Z,19.27
2022-10-18T10:21:53.906Z,28.17
2022-10-18T10:24:30.408Z,33.15
2022-10-18T10:27:01.994Z,41.83
2022-10-18T10:29:50.309Z,41.00
2022-10-18T10:32:21.204Z,25.60
2022-10-18T10:34:51.650Z,37.42
2022-10-18T10:37:41.735Z,30.00
2022-10-18T10:40:24.122Z,29.55
2022-10-18T10:43:08.731Z,41.80
2022-10-18T10:46:06.325Z,28.02
2022-10-18T10:48:37.178Z,47.28
2022-10-18T10:51:11.398Z,27.52
2022-10-18T10:54:00.937Z,21.60
2022-10-18T10:56:34.966Z,24.45
2022-10-18T10:59:18.012Z,35.17
2022-10-18T11:01:50.903Z,30.48
2022-10-18T11:04:31.035Z,35.65
2022-10-18T11:07:07.004Z,25.77
2022-10-18T11:09:55.316Z,19.95
2022-10-18T11:12:30.633Z,30.77
2022-10-18T11:15:11.435Z,21.25
2022-10-18T11:17:49.790Z,26.17
2022-10-18T11:20:24.880Z,25.77
2022-10-18T11:23:13.383Z,28.73
2022-10-18T11:25:43.357Z,19.38
2022-10-18T11:28:18.716Z,21.45
2022-10-18T11:30:54.655Z,24.70
2022-10-18T11:34:07.495Z,24.00
2022-10-18T11:36:36.755Z,19.73
2022-10-18T11:39:28.520Z,18.63
2022-10-18T11:41:58.538Z,28.35
2022-10-18T11:44:28.509Z,19.65
2022-10-18T11:47:20.293Z,27.63
2022-10-18T11:49:56.428Z,23.17
2022-10-18T11:52:29.627Z,29.33
2022-10-18T11:55:15.121Z,24.20
2022-10-18T11:57:45.670Z,30.10
2022-10-18T12:03:05.963Z,25.60
2022-10-18T12:05:37.173Z,17.90
2022-10-18T12:08:10.271Z,25.50
2022-10-18T12:10:53.091Z,23.58
2022-10-18T12:13:43.083Z,28.52
2022-10-18T12:16:13.110Z,28.30
2022-10-18T12:18:50.207Z,30.98
2022-10-18T12:21:25.364Z,27.65
2022-10-18T12:24:05.939Z,42.05
2022-10-18T12:26:36.762Z,58.33
2022-10-18T12:29:09.590Z,34.45
2022-10-18T12:31:45.127Z,30.40
2022-10-18T12:34:17.941Z,32.05
2022-10-18T12:37:11.144Z,30.45
2022-10-18T12:40:05.397Z,32.83
2022-10-18T12:42:35.994Z,30.02
2022-10-18T12:45:07.941Z,28.52
2022-10-18T12:47:39.251Z,39.13
2022-10-18T12:50:10.784Z,22.50
2022-10-18T12:52:41.647Z,25.60
2022-10-18T12:55:16.962Z,25.77
2022-10-18T12:57:54.687Z,26.08
2022-10-18T13:00:33.841Z,25.83
2022-10-18T13:03:19.529Z,22.15
2022-10-18T13:05:55.571Z,27.52
2022-10-18T13:08:35.138Z,25.15
2022-10-18T13:11:14.171Z,27.42
2022-10-18T13:13:56.502Z,27.55
2022-10-18T13:16:29.582Z,25.00
2022-10-18T13:19:04.826Z,24.52
2022-10-18T13:21:37.981Z,22.17
2022-10-18T13:24:17.314Z,21.77
2022-10-18T13:26:51.066Z,22.73
2022-10-18T13:29:33.177Z,20.75
2022-10-18T13:32:06.166Z,18.92
2022-10-18T13:34:39.532Z,18.15
2022-10-18T13:37:12.763Z,21.48
2022-10-18T13:39:42.834Z,18.13
2022-10-18T13:42:21.355Z,18.52
2022-10-18T13:44:51.405Z,19.15
2022-10-18T13:47:50.718Z,18.08
2022-10-18T13:50:20.735Z,20.05
2022-10-18T13:52:51.285Z,16.98
2022-10-18T13:55:24.113Z,18.80
2022-10-18T13:57:54.059Z,16.90
2022-10-18T14:00:33.230Z,21.35
2022-10-18T14:03:44.044Z,18.45
2022-10-18T14:06:11.190Z,18.35
2022-10-18T14:08:46.442Z,21.20
2022-10-18T14:11:16.306Z,24.55
2022-10-18T14:14:08.920Z,18.95
2022-10-18T14:19:14.181Z,20.42
2022-10-18T14:21:45.599Z,20.95
2022-10-18T14:24:33.143Z,17.03
2022-10-18T14:27:22.401Z,19.52
2022-10-18T14:29:52.723Z,19.13
2022-10-18T14:32:26.340Z,15.80
2022-10-18T14:35:20.605Z,17.17
2022-10-18T14:37:47.961Z,17.05
2022-10-18T14:40:53.447Z,17.35
2022-10-18T14:43:23.534Z,18.40
2022-10-18T14:45:53.869Z,15.35
2022-10-18T14:48:24.128Z,14.45
2022-10-18T14:51:02.378Z,13.43
2022-10-18T14:53:38.262Z,14.88
2022-10-18T14:56:11.319Z,15.80
2022-10-18T14:58:41.339Z,21.83
2022-10-18T15:01:16.402Z,23.90
2022-10-18T15:03:46.469Z,14.75
2022-10-18T15:06:20.645Z,13.15
2022-10-18T15:08:51.519Z,12.93
2022-10-18T15:11:21.547Z,15.65
2022-10-18T15:13:56.176Z,15.00
2022-10-18T15:16:28.498Z,13.32
2022-10-18T15:21:27.979Z,12.45
2022-10-18T15:23:57.911Z,15.82
2022-10-18T15:26:30.551Z,13.70
2022-10-18T15:29:04.329Z,14.43
2022-10-18T15:31:37.769Z,11.45
2022-10-18T15:34:13.958Z,15.88
2022-10-18T15:39:27.183Z,13.23
2022-10-18T15:41:57.716Z,13.20
2022-10-18T15:44:27.728Z,12.95
2022-10-18T15:46:58.659Z,17.15
2022-10-18T15:49:34.302Z,13.90
2022-10-18T15:52:11.916Z,14.50
2022-10-18T15:54:45.893Z,9.73
2022-10-18T15:57:18.070Z,12.65
2022-10-18T15:59:54.796Z,14.05
2022-10-18T16:02:24.807Z,13.95
2022-10-18T16:04:54.700Z,12.35
2022-10-18T16:07:24.917Z,13.00
2022-10-18T16:09:54.776Z,11.45
2022-10-18T16:12:24.665Z,12.93
2022-10-18T16:14:54.531Z,11.32
2022-10-18T16:17:24.484Z,13.05
2022-10-18T16:19:54.384Z,11.50
2022-10-18T16:22:24.290Z,14.75
2022-10-18T16:24:57.225Z,11.43
2022-10-18T16:27:27.991Z,13.25
2022-10-18T16:29:58.012Z,11.63
2022-10-18T16:32:27.983Z,13.77
2022-10-18T16:34:57.909Z,11.57
2022-10-18T16:37:27.853Z,14.55
2022-10-18T16:39:57.846Z,12.55
2022-10-18T16:42:28.581Z,15.32
2022-10-18T16:44:59.816Z,15.15
2022-10-18T16:47:29.947Z,15.77
2022-10-18T16:50:06.416Z,12.02
2022-10-18T16:52:38.899Z,13.60
2022-10-18T16:55:16.042Z,17.83
2022-10-18T16:57:46.090Z,12.88
2022-10-18T17:00:20.641Z,16.55
2022-10-18T17:02:51.025Z,16.13
2022-10-18T17:05:21.276Z,16.67
2022-10-18T17:07:51.630Z,19.52
2022-10-18T17:10:22.056Z,13.52
2022-10-18T17:12:53.069Z,17.65
2022-10-18T17:15:23.073Z,14.98
2022-10-18T17:17:53.583Z,15.35
2022-10-18T17:20:27.486Z,16.00
2022-10-18T17:22:57.478Z,16.88
2022-10-18T17:25:27.490Z,16.70
2022-10-18T17:27:57.502Z,14.95
2022-10-18T17:30:27.406Z,17.30
2022-10-18T17:32:57.370Z,17.00
2022-10-18T17:35:27.356Z,16.20
2022-10-18T17:37:57.305Z,16.13
2022-10-18T17:40:27.220Z,17.00
2022-10-18T17:42:57.144Z,15.63
2022-10-18T17:45:27.078Z,15.82
2022-10-18T17:47:57.068Z,16.40
2022-10-18T17:50:27.042Z,15.02
2022-10-18T17:52:57.114Z,14.95
2022-10-18T17:55:28.005Z,19.92
2022-10-18T17:57:58.055Z,15.43
2022-10-18T18:00:29.577Z,15.75
2022-10-18T18:03:00.057Z,20.33
2022-10-18T18:05:33.865Z,18.20
2022-10-18T18:08:04.514Z,15.75
2022-10-18T18:10:35.018Z,16.67
2022-10-18T18:13:04.943Z,19.77
2022-10-18T18:15:35.257Z,15.02
2022-10-18T18:18:05.376Z,14.75
2022-10-18T18:20:35.297Z,17.00
2022-10-18T18:23:05.234Z,15.80
2022-10-18T18:25:35.110Z,17.73
2022-10-18T18:28:07.584Z,16.17
2022-10-18T18:30:37.678Z,17.27
2022-10-18T18:33:07.674Z,16.55
2022-10-18T18:35:37.642Z,20.58
2022-10-18T18:38:07.662Z,14.93
2022-10-18T18:40:37.601Z,17.92
2022-10-18T18:43:22.644Z,17.50
2022-10-18T18:45:53.670Z,19.88
2022-10-18T18:48:23.661Z,16.00
2022-10-18T18:50:53.824Z,21.42
2022-10-18T18:53:27.213Z,16.10
2022-10-18T18:56:09.391Z,17.23
2022-10-18T18:58:40.067Z,15.95
2022-10-18T19:01:14.125Z,20.73
2022-10-18T19:03:44.318Z,15.60
2022-10-18T19:06:24.341Z,17.45
2022-10-18T19:09:05.669Z,15.98
2022-10-18T19:11:40.003Z,17.33
2022-10-18T19:14:10.544Z,17.35
2022-10-18T19:16:41.077Z,14.77
2022-10-18T19:19:14.804Z,16.42
2022-10-18T19:21:46.239Z,18.20
2022-10-18T19:24:16.697Z,18.60
2022-10-18T19:26:49.917Z,17.15
2022-10-18T19:29:22.702Z,17.25
2022-10-18T19:31:53.790Z,16.40
2022-10-18T19:34:24.430Z,15.73
2022-10-18T19:36:54.396Z,16.48
2022-10-18T19:39:27.840Z,16.05
2022-10-18T19:41:59.187Z,17.67
2022-10-18T19:44:30.938Z,18.17
2022-10-18T19:47:01.423Z,13.88
2022-10-18T19:49:31.591Z,14.95
2022-10-18T19:52:01.747Z,17.65
2022-10-18T19:54:32.189Z,14.82
2022-10-18T19:57:02.573Z,16.90
2022-10-18T19:59:32.659Z,15.75
2022-10-18T20:02:02.912Z,13.43
2022-10-18T20:04:36.735Z,14.70
2022-10-18T20:07:06.818Z,18.63
2022-10-18T20:09:37.675Z,16.67
2022-10-18T20:12:08.083Z,16.30
2022-10-18T20:14:38.388Z,17.80
2022-10-18T20:17:08.413Z,17.88
2022-10-18T20:19:38.461Z,19.52
2022-10-18T20:22:08.489Z,16.17
2022-10-18T20:24:38.451Z,15.38
2022-10-18T20:27:08.891Z,16.92
2022-10-18T20:29:38.857Z,13.80
2022-10-18T20:32:09.910Z,16.30
2022-10-18T20:34:40.153Z,14.63
2022-10-18T20:37:10.056Z,16.83
2022-10-18T20:39:41.689Z,16.88
2022-10-18T20:42:12.000Z,15.02
2022-10-18T20:44:44.656Z,14.63
2022-10-18T20:47:14.581Z,13.63
2022-10-18T20:49:44.571Z,14.90
2022-10-18T20:52:14.616Z,14.48
2022-10-18T20:54:44.828Z,13.13
2022-10-18T20:57:15.263Z,18.35
2022-10-18T20:59:45.341Z,16.13
2022-10-18T21:02:15.374Z,15.38
2022-10-18T21:04:45.302Z,13.18
2022-10-18T21:07:15.258Z,13.05
2022-10-18T21:09:45.193Z,14.45
2022-10-18T21:12:15.135Z,14.73
2022-10-18T21:14:45.066Z,15.00
2022-10-18T21:17:14.968Z,12.50
2022-10-18T21:19:44.887Z,13.88
2022-10-18T21:22:14.811Z,13.27
2022-10-18T21:24:46.316Z,15.55
2022-10-18T21:27:16.224Z,11.83
2022-10-18T21:29:46.853Z,17.27
2022-10-18T21:32:17.270Z,15.35
2022-10-18T21:34:47.297Z,12.98
2022-10-18T21:37:17.227Z,16.75
2022-10-18T21:39:47.733Z,12.18
2022-10-18T21:42:17.641Z,14.30
2022-10-18T21:44:47.741Z,12.40
2022-10-18T21:47:18.051Z,11.60
2022-10-18T21:49:48.356Z,12.88
2022-10-18T21:52:18.292Z,9.63
2022-10-18T21:54:48.190Z,11.75
2022-10-18T21:57:18.114Z,10.10
2022-10-18T21:59:48.079Z,9.68
2022-10-18T22:02:18.030Z,9.98
2022-10-18T22:04:48.135Z,12.10
2022-10-18T22:07:18.214Z,12.80
2022-10-18T22:09:48.141Z,10.60
2022-10-18T22:12:18.047Z,12.27
2022-10-18T22:14:48.008Z,10.90
2022-10-18T22:17:17.983Z,10.90
2022-10-18T22:19:48.457Z,8.90
2022-10-18T22:22:19.104Z,11.43
2022-10-18T22:24:50.313Z,10.18
2022-10-18T22:27:20.261Z,10.05
2022-10-18T22:29:50.697Z,10.63
2022-10-18T22:32:21.583Z,11.90
2022-10-18T22:34:51.570Z,8.63
2022-10-18T22:37:21.457Z,9.60
2022-10-18T22:39:52.069Z,11.70
2022-10-18T22:42:22.016Z,12.23
2022-10-18T22:44:52.066Z,9.27
2022-10-18T22:47:22.248Z,11.23
2022-10-18T22:49:52.486Z,11.00
2022-10-18T22:52:22.392Z,11.05
2022-10-18T22:54:52.277Z,10.98
2022-10-18T22:57:22.200Z,9.68
2022-10-18T22:59:52.181Z,8.45
2022-10-18T23:02:22.496Z,9.50
2022-10-18T23:04:52.504Z,11.13
2022-10-18T23:07:22.429Z,9.93
2022-10-18T23:09:53.507Z,11.70
2022-10-18T23:12:23.513Z,11.88
2022-10-18T23:14:53.428Z,10.73
2022-10-18T23:17:23.334Z,11.07
2022-10-18T23:19:53.538Z,9.50
2022-10-18T23:22:23.498Z,8.15
2022-10-18T23:24:53.432Z,9.00
2022-10-18T23:27:23.373Z,7.47
2022-10-18T23:29:53.404Z,9.95
2022-10-18T23:32:23.286Z,10.77
2022-10-18T23:34:53.403Z,8.80
2022-10-18T23:37:23.292Z,10.65
2022-10-18T23:39:53.164Z,10.15
2022-10-18T23:42:23.085Z,10.27
2022-10-18T23:44:53.016Z,8.93
2022-10-18T23:47:22.926Z,11.43
2022-10-18T23:49:52.849Z,8.00
2022-10-18T23:52:22.701Z,12.27
2022-10-18T23:54:52.611Z,9.32
2022-10-18T23:57:22.538Z,9.05
2022-10-18T23:59:52.543Z,9.80
